createdAt,value
2018-12-11T00:00:02.116Z,101340.98
2018-12-11T00:05:07.150Z,101345.73
2018-12-11T00:10:11.830Z,101339.69
2018-12-11T00:15:16.805Z,101334.87
2018-12-11T00:20:21.424Z,101325.31
2018-12-11T00:25:25.915Z,101336.55
2018-12-11T00:30:31.509Z,101344.27
2018-12-11T00:35:36.152Z,101340.32
2018-12-11T00:40:40.359Z,101336.41
2018-12-11T00:45:45.283Z,101331.25
2018-12-11T00:50:50.735Z,101321.31
2018-12-11T00:55:55.799Z,101317.97
2018-12-11T01:06:25.745Z,101336.06
2018-12-11T01:11:31.252Z,101331.79
2018-12-11T01:16:36.423Z,101344.33
2018-12-11T01:21:54.334Z,101349.46
2018-12-11T01:26:59.072Z,101350.36
2018-12-11T01:32:04.274Z,101353.05
2018-12-11T01:37:08.784Z,101345.70
2018-12-11T01:42:13.550Z,101359.23
2018-12-11T01:47:17.769Z,101351.48
2018-12-11T01:52:22.002Z,101356.26
2018-12-11T01:57:26.164Z,101354.58
2018-12-11T02:07:49.332Z,101359.80
2018-12-11T02:12:59.899Z,101361.52
2018-12-11T02:18:04.189Z,101356.76
2018-12-11T02:23:09.212Z,101370.59
2018-12-11T02:28:13.433Z,101366.22
2018-12-11T02:33:18.716Z,101359.25
2018-12-11T02:38:23.410Z,101373.47
2018-12-11T02:43:29.583Z,101379.06
2018-12-11T02:48:34.187Z,101385.60
2018-12-11T02:53:38.844Z,101384.34
2018-12-11T02:58:43.816Z,101383.05
2018-12-11T03:03:48.837Z,101374.42
2018-12-11T03:14:14.592Z,101371.00
2018-12-11T03:19:19.577Z,101379.24
2018-12-11T03:24:25.229Z,101374.06
2018-12-11T03:34:52.569Z,101373.22
2018-12-11T03:39:57.285Z,101381.91
2018-12-11T03:45:04.001Z,101374.11
2018-12-11T03:50:15.927Z,101377.16
2018-12-11T04:00:47.922Z,101381.91
2018-12-11T04:10:59.197Z,101379.34
2018-12-11T04:16:05.193Z,101380.18
2018-12-11T04:21:10.426Z,101392.30
2018-12-11T04:31:39.796Z,101403.55
2018-12-11T04:36:44.310Z,101413.97
2018-12-11T04:41:49.252Z,101409.19
2018-12-11T04:46:53.419Z,101420.01
2018-12-11T04:51:58.162Z,101415.25
2018-12-11T04:57:03.236Z,101417.88
2018-12-11T05:02:07.468Z,101418.77
2018-12-11T05:07:12.823Z,101418.75
2018-12-11T05:17:37.309Z,101422.98
2018-12-11T05:22:41.948Z,101423.80
2018-12-11T05:27:46.559Z,101418.69
2018-12-11T05:32:50.909Z,101428.65
2018-12-11T05:37:56.112Z,101437.77
2018-12-11T05:43:00.962Z,101422.57
2018-12-11T05:48:06.948Z,101420.39
2018-12-11T05:53:14.180Z,101441.97
2018-12-11T06:03:47.561Z,101446.64
2018-12-11T06:08:52.609Z,101445.83
2018-12-11T06:13:57.277Z,101447.59
2018-12-11T06:19:02.572Z,101452.82
2018-12-11T06:24:08.135Z,101444.63
2018-12-11T06:29:12.358Z,101451.97
2018-12-11T06:34:18.517Z,101448.09
2018-12-11T06:39:23.666Z,101455.06
2018-12-11T06:44:27.838Z,101463.26
2018-12-11T06:49:32.117Z,101461.49
2018-12-11T06:54:37.891Z,101470.59
2018-12-11T06:59:43.036Z,101467.14
2018-12-11T07:04:48.189Z,101468.43
2018-12-11T07:09:53.072Z,101480.13
2018-12-11T07:14:57.594Z,101480.97
2018-12-11T07:20:02.297Z,101478.38
2018-12-11T07:25:07.003Z,101479.25
2018-12-11T07:30:12.665Z,101486.64
2018-12-11T07:40:43.686Z,101496.16
2018-12-11T07:45:49.743Z,101497.47
2018-12-11T07:50:53.984Z,101494.42
2018-12-11T07:56:00.379Z,101506.98
2018-12-11T08:01:05.410Z,101500.88
2018-12-11T08:06:10.474Z,101516.88
2018-12-11T08:11:15.054Z,101525.97
2018-12-11T08:16:20.877Z,101522.50
2018-12-11T08:21:26.393Z,101532.89
2018-12-11T08:26:30.962Z,101526.42
2018-12-11T08:31:35.689Z,101529.03
2018-12-11T08:36:40.222Z,101525.60
2018-12-11T08:41:45.251Z,101539.44
2018-12-11T08:52:11.185Z,101531.98
2018-12-11T08:57:16.277Z,101545.00
2018-12-11T09:02:22.743Z,101548.89
2018-12-11T09:07:27.664Z,101539.38
2018-12-11T09:12:33.221Z,101541.55
2018-12-11T09:17:39.372Z,101542.36
2018-12-11T09:22:44.309Z,101548.39
2018-12-11T09:27:54.088Z,101552.74
2018-12-11T09:32:58.641Z,101562.72
2018-12-11T09:38:05.421Z,101576.55
2018-12-11T09:43:10.482Z,101587.30
2018-12-11T09:48:15.523Z,101576.89
2018-12-11T09:53:21.622Z,101576.93
2018-12-11T09:58:26.534Z,101575.17
2018-12-11T10:03:32.404Z,101573.38
2018-12-11T10:08:37.528Z,101562.94
2018-12-11T10:13:42.948Z,101570.70
2018-12-11T10:24:15.379Z,101569.66
2018-12-11T10:29:19.909Z,101578.73
2018-12-11T10:34:25.564Z,101575.64
2018-12-11T10:39:31.657Z,101575.59
2018-12-11T10:50:04.820Z,101576.34
2018-12-11T10:55:10.079Z,101577.55
2018-12-11T11:00:51.328Z,101568.39
2018-12-11T11:05:55.557Z,101573.89
2018-12-11T11:11:00.129Z,101576.37
2018-12-11T11:16:04.430Z,101576.30
2018-12-11T11:21:09.001Z,101574.12
2018-12-11T11:26:13.291Z,101575.75
2018-12-11T11:31:18.030Z,101579.63
2018-12-11T11:36:22.406Z,101585.61
2018-12-11T11:41:27.080Z,101590.38
2018-12-11T11:46:31.304Z,101598.09
2018-12-11T11:51:36.034Z,101596.67
2018-12-11T11:56:40.677Z,101586.14
2018-12-11T12:01:45.262Z,101585.56
2018-12-11T12:06:50.291Z,101585.69
2018-12-11T12:11:55.522Z,101588.35
2018-12-11T12:22:23.508Z,101589.86
2018-12-11T12:27:28.503Z,101592.66
2018-12-11T12:32:34.210Z,101594.58
2018-12-11T12:37:40.140Z,101598.91
2018-12-11T12:42:47.370Z,101596.81
2018-12-11T12:53:15.491Z,101600.38
2018-12-11T12:58:22.051Z,101281.05
2018-12-11T13:03:31.346Z,101596.98
2018-12-11T13:08:36.489Z,101594.80
2018-12-11T13:13:42.097Z,101608.70
2018-12-11T13:18:47.380Z,101604.94
2018-12-11T13:23:52.579Z,101613.16
2018-12-11T13:28:59.242Z,101617.48
2018-12-11T13:34:04.770Z,101619.66
2018-12-11T13:39:11.705Z,101622.00
2018-12-11T13:44:16.922Z,101627.28
2018-12-11T13:49:22.097Z,101622.59
2018-12-11T13:54:27.699Z,101630.77
2018-12-11T14:04:55.190Z,101622.89
2018-12-11T14:10:00.423Z,101623.41
2018-12-11T14:15:06.365Z,101631.41
2018-12-11T14:20:14.163Z,101633.72
2018-12-11T14:25:19.894Z,101629.91
2018-12-11T14:30:25.785Z,101626.91
2018-12-11T14:40:58.999Z,101634.03
2018-12-11T14:46:05.858Z,101635.34
2018-12-11T14:51:10.612Z,101641.92
2018-12-11T14:56:16.666Z,101647.52
2018-12-11T15:01:21.534Z,101643.14
2018-12-11T15:06:25.971Z,101651.89
2018-12-11T15:11:30.595Z,101655.42
2018-12-11T15:16:35.527Z,101658.53
2018-12-11T15:21:40.036Z,101657.27
2018-12-11T15:26:45.722Z,101659.08
2018-12-11T15:31:50.282Z,101665.61
2018-12-11T15:36:54.545Z,101674.33
2018-12-11T15:41:59.985Z,101675.23
2018-12-11T15:47:04.487Z,101676.55
2018-12-11T15:52:10.015Z,101676.56
2018-12-11T15:57:14.581Z,101680.86
2018-12-11T16:02:19.540Z,101684.77
2018-12-11T16:07:25.270Z,101695.16
2018-12-11T16:12:28.749Z,101696.08
2018-12-11T16:17:31.744Z,101694.27
2018-12-11T16:22:34.826Z,101699.41
2018-12-11T16:27:38.078Z,101699.36
2018-12-11T16:32:41.243Z,101704.14
2018-12-11T16:37:44.480Z,101701.98
2018-12-11T16:42:47.443Z,101704.95
2018-12-11T16:47:50.416Z,101704.97
2018-12-11T16:52:53.384Z,101707.98
2018-12-11T16:57:56.388Z,101714.10
2018-12-11T17:02:59.420Z,101719.27
2018-12-11T17:08:02.432Z,101722.77
2018-12-11T17:13:05.459Z,101730.58
2018-12-11T17:18:08.563Z,101735.33
2018-12-11T17:23:11.531Z,101743.55
2018-12-11T17:28:14.609Z,101748.80
2018-12-11T17:33:17.681Z,101743.56
2018-12-11T17:38:20.735Z,101750.95
2018-12-11T17:43:23.824Z,101758.77
2018-12-11T17:48:27.587Z,101767.02
2018-12-11T17:53:30.886Z,101771.36
2018-12-11T17:58:33.891Z,101776.16
2018-12-11T18:03:36.878Z,101780.05
2018-12-11T18:08:39.899Z,101783.52
2018-12-11T18:13:42.877Z,101790.05
2018-12-11T18:18:45.864Z,101788.30
2018-12-11T18:23:49.009Z,101792.21
2018-12-11T18:28:52.208Z,101797.41
2018-12-11T18:33:55.336Z,101799.17
2018-12-11T18:38:58.377Z,101806.98
2018-12-11T18:44:01.384Z,101813.52
2018-12-11T18:49:04.560Z,101810.91
2018-12-11T18:54:07.885Z,101816.11
2018-12-11T18:59:10.961Z,101815.69
2018-12-11T19:04:14.055Z,101825.64
2018-12-11T19:09:17.222Z,101816.09
2018-12-11T19:14:20.442Z,101814.36
2018-12-11T19:19:23.455Z,101820.47
2018-12-11T19:24:58.739Z,101819.60
2018-12-11T19:30:01.752Z,101830.90
2018-12-11T19:35:05.361Z,101821.36
2018-12-11T19:40:09.313Z,101827.43
2018-12-11T19:45:12.512Z,101831.33
2018-12-11T19:50:16.200Z,101827.87
2018-12-11T19:55:19.293Z,101837.00
2018-12-11T20:00:22.331Z,101841.33
2018-12-11T20:05:25.317Z,101848.70
2018-12-11T20:10:28.354Z,101841.32
2018-12-11T20:15:31.347Z,101852.17
2018-12-11T20:20:34.370Z,101850.45
2018-12-11T20:30:59.587Z,101855.67
2018-12-11T20:36:03.232Z,101865.19
2018-12-11T20:41:07.084Z,101858.26
2018-12-11T20:51:36.726Z,101876.03
2018-12-11T20:56:39.729Z,101861.73
2018-12-11T21:01:42.737Z,101866.49
2018-12-11T21:06:45.697Z,101867.80
2018-12-11T21:11:48.635Z,101882.13
2018-12-11T21:16:51.608Z,101895.16
2018-12-11T21:21:54.658Z,101894.69
2018-12-11T21:26:57.665Z,101896.88
2018-12-11T21:32:00.687Z,101896.87
2018-12-11T21:37:03.760Z,101906.41
2018-12-11T21:47:25.733Z,101915.11
2018-12-11T21:52:29.319Z,101916.84
2018-12-11T21:57:33.982Z,101922.90
2018-12-11T22:08:03.344Z,101926.81
2018-12-11T22:13:14.326Z,101932.43
2018-12-11T22:18:23.200Z,101929.84
2018-12-11T22:23:26.774Z,101928.54
2018-12-11T22:28:30.026Z,101932.88
2018-12-11T22:33:35.011Z,101941.55
2018-12-11T22:44:00.726Z,101933.30
2018-12-11T22:49:03.852Z,101933.75
2018-12-11T22:54:07.185Z,101940.25
2018-12-11T23:04:34.668Z,101938.08
2018-12-11T23:09:37.657Z,101941.10
2018-12-11T23:14:40.626Z,101947.19
2018-12-11T23:19:43.603Z,101943.70
2018-12-11T23:24:46.810Z,101947.19
2018-12-11T23:29:49.786Z,101960.16
2018-12-11T23:34:53.894Z,101961.02
2018-12-11T23:50:43.835Z,101955.81
2018-12-11T23:55:47.078Z,101962.34
